createdAt,value
2023-05-13T00:01:38.924Z,2.85
2023-05-13T00:04:07.497Z,2.90
2023-05-13T00:06:36.260Z,2.78
2023-05-13T00:09:05.921Z,3.00
2023-05-13T00:11:34.322Z,3.03
2023-05-13T00:14:02.952Z,3.10
2023-05-13T00:16:31.338Z,3.25
2023-05-13T00:19:01.181Z,3.35
2023-05-13T00:21:29.586Z,2.80
2023-05-13T00:23:57.991Z,3.10
2023-05-13T00:26:26.824Z,3.05
2023-05-13T00:28:55.570Z,2.95
2023-05-13T00:31:24.064Z,2.83
2023-05-13T00:33:52.613Z,3.30
2023-05-13T00:36:22.347Z,2.92
2023-05-13T00:38:50.958Z,3.20
2023-05-13T00:41:19.369Z,3.15
2023-05-13T00:43:47.725Z,3.10
2023-05-13T00:46:16.601Z,3.17
2023-05-13T00:48:45.028Z,3.13
2023-05-13T00:51:13.549Z,3.38
2023-05-13T00:53:43.252Z,3.17
2023-05-13T00:56:11.707Z,3.40
2023-05-13T00:58:40.108Z,3.08
2023-05-13T01:01:16.158Z,3.75
2023-05-13T01:03:53.754Z,3.30
2023-05-13T01:06:28.014Z,3.00
2023-05-13T01:09:03.612Z,3.10
2023-05-13T01:11:34.320Z,3.00
2023-05-13T01:14:14.613Z,3.65
2023-05-13T01:16:47.585Z,3.53
2023-05-13T01:19:27.642Z,3.20
2023-05-13T01:21:57.338Z,3.13
2023-05-13T01:24:26.002Z,3.13
2023-05-13T01:26:54.482Z,3.42
2023-05-13T01:29:23.037Z,3.00
2023-05-13T01:31:51.843Z,3.10
2023-05-13T01:34:20.610Z,3.28
2023-05-13T01:36:49.561Z,3.40
2023-05-13T01:39:19.312Z,3.00
2023-05-13T01:41:47.777Z,3.25
2023-05-13T01:44:16.693Z,3.45
2023-05-13T01:46:45.470Z,3.67
2023-05-13T01:49:13.926Z,3.35
2023-05-13T01:51:42.783Z,3.47
2023-05-13T01:54:11.171Z,3.40
2023-05-13T01:56:40.878Z,3.47
2023-05-13T01:59:11.245Z,3.08
2023-05-13T02:01:40.633Z,3.20
2023-05-13T02:04:09.338Z,3.00
2023-05-13T02:06:37.711Z,3.38
2023-05-13T02:09:06.139Z,3.30
2023-05-13T02:11:35.968Z,3.40
2023-05-13T02:14:05.729Z,3.10
2023-05-13T02:16:34.382Z,3.60
2023-05-13T02:19:02.827Z,3.28
2023-05-13T02:21:32.063Z,3.28
2023-05-13T02:24:00.637Z,3.10
2023-05-13T02:26:29.028Z,3.53
2023-05-13T02:28:57.729Z,3.40
2023-05-13T02:31:27.902Z,3.05
2023-05-13T02:33:56.286Z,3.65
2023-05-13T02:36:24.792Z,3.22
2023-05-13T02:38:53.086Z,3.40
2023-05-13T02:41:21.695Z,3.65
2023-05-13T02:43:50.045Z,3.67
2023-05-13T02:46:18.478Z,3.47
2023-05-13T02:48:48.660Z,3.10
2023-05-13T02:51:16.991Z,3.20
2023-05-13T02:53:45.522Z,3.38
2023-05-13T02:56:16.294Z,3.60
2023-05-13T02:58:44.832Z,3.58
2023-05-13T03:01:13.422Z,3.30
2023-05-13T03:03:41.932Z,3.60
2023-05-13T03:06:11.894Z,3.50
2023-05-13T03:08:40.244Z,3.15
2023-05-13T03:11:08.720Z,3.20
2023-05-13T03:13:37.179Z,3.17
2023-05-13T03:16:06.148Z,3.70
2023-05-13T03:18:36.230Z,3.35
2023-05-13T03:21:04.654Z,3.38
2023-05-13T03:23:35.198Z,3.97
2023-05-13T03:26:03.816Z,3.40
2023-05-13T03:28:32.511Z,3.40
2023-05-13T03:31:01.045Z,3.47
2023-05-13T03:33:30.001Z,3.45
2023-05-13T03:35:58.480Z,3.55
2023-05-13T03:38:26.857Z,3.30
2023-05-13T03:40:56.829Z,3.30
2023-05-13T03:43:25.140Z,4.07
2023-05-13T03:45:53.490Z,3.55
2023-05-13T03:48:22.016Z,3.78
2023-05-13T03:50:50.457Z,4.20
2023-05-13T03:53:19.279Z,3.60
2023-05-13T03:55:47.632Z,3.72
2023-05-13T03:58:17.415Z,3.92
2023-05-13T04:00:47.789Z,3.60
2023-05-13T04:03:17.351Z,3.53
2023-05-13T04:05:47.160Z,3.60
2023-05-13T04:08:15.530Z,3.50
2023-05-13T04:10:44.852Z,4.00
2023-05-13T04:13:13.203Z,3.55
2023-05-13T04:15:42.930Z,3.65
2023-05-13T04:18:11.387Z,3.70
2023-05-13T04:20:40.127Z,3.67
2023-05-13T04:23:08.768Z,3.55
2023-05-13T04:25:37.838Z,3.63
2023-05-13T04:28:07.241Z,4.00
2023-05-13T04:30:36.446Z,3.70
2023-05-13T04:33:06.782Z,3.92
2023-05-13T04:35:35.376Z,3.92
2023-05-13T04:38:03.834Z,3.65
2023-05-13T04:40:32.255Z,3.55
2023-05-13T04:43:00.898Z,3.63
2023-05-13T04:45:29.639Z,3.80
2023-05-13T04:47:58.569Z,3.80
2023-05-13T04:50:28.498Z,3.80
2023-05-13T04:52:57.626Z,3.67
2023-05-13T04:55:27.531Z,3.33
2023-05-13T04:57:56.313Z,3.60
2023-05-13T05:00:25.358Z,3.83
2023-05-13T05:02:53.850Z,3.63
2023-05-13T05:05:22.400Z,3.67
2023-05-13T05:07:52.340Z,4.10
2023-05-13T05:10:21.106Z,4.25
2023-05-13T05:12:49.967Z,3.45
2023-05-13T05:15:18.363Z,3.63
2023-05-13T05:17:46.864Z,3.85
2023-05-13T05:20:15.582Z,4.00
2023-05-13T05:22:43.998Z,4.10
2023-05-13T05:25:15.654Z,3.63
2023-05-13T05:27:44.310Z,4.18
2023-05-13T05:30:14.734Z,4.05
2023-05-13T05:32:43.277Z,3.40
2023-05-13T05:35:11.657Z,3.70
2023-05-13T05:37:40.195Z,3.60
2023-05-13T05:40:10.452Z,4.05
2023-05-13T05:42:40.302Z,3.80
2023-05-13T05:45:10.358Z,3.42
2023-05-13T05:47:38.876Z,3.50
2023-05-13T05:50:08.743Z,3.80
2023-05-13T05:52:37.167Z,3.85
2023-05-13T05:55:07.803Z,3.75
2023-05-13T05:57:36.173Z,3.70
2023-05-13T06:00:08.201Z,3.92
2023-05-13T06:02:36.572Z,3.75
2023-05-13T06:05:05.354Z,3.30
2023-05-13T06:07:33.956Z,4.30
2023-05-13T06:10:02.322Z,3.85
2023-05-13T06:12:30.923Z,3.97
2023-05-13T06:14:59.393Z,3.53
2023-05-13T06:17:29.370Z,3.70
2023-05-13T06:19:59.121Z,3.60
2023-05-13T06:22:27.626Z,3.80
2023-05-13T06:24:56.726Z,3.85
2023-05-13T06:27:25.888Z,4.15
2023-05-13T06:29:54.630Z,4.22
2023-05-13T06:32:23.021Z,3.30
2023-05-13T06:34:54.632Z,3.65
2023-05-13T06:37:24.470Z,4.00
2023-05-13T06:39:52.938Z,3.70
2023-05-13T06:42:21.321Z,3.85
2023-05-13T06:44:49.790Z,3.83
2023-05-13T06:47:18.291Z,4.00
2023-05-13T06:49:46.935Z,3.55
2023-05-13T06:52:16.686Z,3.97
2023-05-13T06:54:45.181Z,3.58
2023-05-13T06:57:13.489Z,3.45
2023-05-13T06:59:41.915Z,4.05
2023-05-13T07:02:11.402Z,3.50
2023-05-13T07:04:39.735Z,3.83
2023-05-13T07:07:08.320Z,4.10
2023-05-13T07:09:41.122Z,3.67
2023-05-13T07:12:11.023Z,4.10
2023-05-13T07:14:39.447Z,3.58
2023-05-13T07:17:08.023Z,3.63
2023-05-13T07:19:36.559Z,3.80
2023-05-13T07:22:05.128Z,3.70
2023-05-13T07:24:33.650Z,4.25
2023-05-13T07:27:04.010Z,3.45
2023-05-13T07:29:32.785Z,4.20
2023-05-13T07:32:05.795Z,3.28
2023-05-13T07:34:34.170Z,3.47
2023-05-13T07:37:04.203Z,3.25
2023-05-13T07:39:33.043Z,3.47
2023-05-13T07:42:02.889Z,3.38
2023-05-13T07:44:31.576Z,3.38
2023-05-13T07:47:00.107Z,3.22
2023-05-13T07:49:28.885Z,3.13
2023-05-13T07:51:57.301Z,2.97
2023-05-13T07:54:25.675Z,3.15
2023-05-13T07:56:54.167Z,3.38
2023-05-13T07:59:23.971Z,3.30
2023-05-13T08:01:52.773Z,3.00
2023-05-13T08:04:21.399Z,3.35
2023-05-13T08:06:49.915Z,3.20
2023-05-13T08:09:18.442Z,3.70
2023-05-13T08:11:47.169Z,3.20
2023-05-13T08:14:15.704Z,3.20
2023-05-13T08:16:45.577Z,2.95
2023-05-13T08:19:15.473Z,2.78
2023-05-13T08:21:44.106Z,2.78
2023-05-13T08:24:13.030Z,2.80
2023-05-13T08:26:41.419Z,2.88
2023-05-13T08:29:13.047Z,2.65
2023-05-13T08:31:42.001Z,3.35
2023-05-13T08:34:12.000Z,2.97
2023-05-13T08:36:40.355Z,2.83
2023-05-13T08:39:08.800Z,3.17
2023-05-13T08:41:37.134Z,2.70
2023-05-13T08:44:06.886Z,2.40
2023-05-13T08:46:35.955Z,2.60
2023-05-13T08:49:04.732Z,2.42
2023-05-13T08:51:34.496Z,2.95
2023-05-13T08:54:03.683Z,2.78
2023-05-13T08:56:32.527Z,2.67
2023-05-13T08:59:00.920Z,2.65
2023-05-13T09:01:29.318Z,2.97
2023-05-13T09:04:00.569Z,2.95
2023-05-13T09:06:29.735Z,2.95
2023-05-13T09:08:59.695Z,2.53
2023-05-13T09:11:28.300Z,3.00
2023-05-13T09:14:00.055Z,2.65
2023-05-13T09:16:29.981Z,2.67
2023-05-13T09:19:00.037Z,2.70
2023-05-13T09:21:30.293Z,3.05
2023-05-13T09:24:13.350Z,2.45
2023-05-13T09:26:42.495Z,2.58
2023-05-13T09:29:19.204Z,2.88
2023-05-13T09:31:49.128Z,2.70
2023-05-13T09:34:26.162Z,2.65
2023-05-13T09:37:00.704Z,2.80
2023-05-13T09:39:32.287Z,2.60
2023-05-13T09:42:04.899Z,2.70
2023-05-13T09:44:34.189Z,2.88
2023-05-13T09:47:03.716Z,2.80
2023-05-13T09:49:32.722Z,2.75
2023-05-13T09:52:01.469Z,2.75
2023-05-13T09:54:37.384Z,2.78
2023-05-13T09:57:06.585Z,3.63
2023-05-13T09:59:35.042Z,2.60
2023-05-13T10:02:05.506Z,3.10
2023-05-13T10:04:34.150Z,2.95
2023-05-13T10:07:04.279Z,2.60
2023-05-13T10:09:38.243Z,2.67
2023-05-13T10:12:08.688Z,3.00
2023-05-13T10:14:37.746Z,3.08
2023-05-13T10:17:07.055Z,3.95
2023-05-13T10:19:35.585Z,2.75
2023-05-13T10:22:07.292Z,3.72
2023-05-13T10:24:38.525Z,3.72
2023-05-13T10:27:09.090Z,3.35
2023-05-13T10:29:39.124Z,3.22
2023-05-13T10:32:09.360Z,2.97
2023-05-13T10:34:38.401Z,2.75
2023-05-13T10:37:46.825Z,2.83
2023-05-13T10:40:50.112Z,2.72
2023-05-13T10:43:23.397Z,2.45
2023-05-13T10:45:56.235Z,2.70
2023-05-13T10:48:24.864Z,2.67
2023-05-13T10:50:54.518Z,2.60
2023-05-13T10:53:25.275Z,2.20
2023-05-13T10:55:59.253Z,3.15
2023-05-13T10:58:32.999Z,2.53
2023-05-13T11:01:15.865Z,2.78
2023-05-13T11:03:52.562Z,2.50
2023-05-13T11:06:22.434Z,2.92
2023-05-13T11:08:53.595Z,2.70
2023-05-13T11:11:30.663Z,2.25
2023-05-13T11:14:17.044Z,2.50
2023-05-13T11:16:51.220Z,2.42
2023-05-13T11:19:24.947Z,2.42
2023-05-13T11:21:54.531Z,3.20
2023-05-13T11:24:23.152Z,2.50
2023-05-13T11:26:53.225Z,2.70
2023-05-13T11:29:33.524Z,2.55
2023-05-13T11:32:03.251Z,2.53
2023-05-13T11:34:31.702Z,2.15
2023-05-13T11:37:10.762Z,2.50
2023-05-13T11:39:41.355Z,2.33
2023-05-13T11:42:10.506Z,2.35
2023-05-13T11:44:46.808Z,2.40
2023-05-13T11:47:15.834Z,2.50
2023-05-13T11:49:45.105Z,2.40
2023-05-13T11:52:15.384Z,2.42
2023-05-13T11:54:46.522Z,2.53
2023-05-13T11:57:25.349Z,2.53
2023-05-13T11:59:58.237Z,2.40
2023-05-13T12:02:28.824Z,2.80
2023-05-13T12:04:57.436Z,2.42
2023-05-13T12:07:26.562Z,2.47
2023-05-13T12:09:57.495Z,2.50
2023-05-13T12:12:26.841Z,2.47
2023-05-13T12:14:57.003Z,2.22
2023-05-13T12:17:25.490Z,2.35
2023-05-13T12:20:08.179Z,2.85
2023-05-13T12:22:37.095Z,2.20
2023-05-13T12:25:43.415Z,2.70
2023-05-13T12:28:14.336Z,2.60
2023-05-13T12:30:45.371Z,2.28
2023-05-13T12:33:17.185Z,2.58
2023-05-13T12:35:45.742Z,2.28
2023-05-13T12:38:18.121Z,2.75
2023-05-13T12:40:47.408Z,2.20
2023-05-13T12:43:16.956Z,2.53
2023-05-13T12:45:48.237Z,2.30
2023-05-13T12:48:16.693Z,2.30
2023-05-13T12:50:45.231Z,2.40
2023-05-13T12:53:13.657Z,2.42
2023-05-13T12:55:42.142Z,2.60
2023-05-13T12:58:12.264Z,2.55
2023-05-13T13:00:40.722Z,2.33
2023-05-13T13:03:11.413Z,2.40
2023-05-13T13:05:39.907Z,2.25
2023-05-13T13:08:08.749Z,2.20
2023-05-13T13:10:37.124Z,2.00
2023-05-13T13:13:05.464Z,2.17
2023-05-13T13:15:33.976Z,2.45
2023-05-13T13:18:02.359Z,2.50
2023-05-13T13:20:32.254Z,2.30
2023-05-13T13:23:02.085Z,2.13
2023-05-13T13:25:30.442Z,2.20
2023-05-13T13:27:58.917Z,2.17
2023-05-13T13:30:27.523Z,2.38
2023-05-13T13:32:56.162Z,2.60
2023-05-13T13:35:24.716Z,2.08
2023-05-13T13:37:56.356Z,2.25
2023-05-13T13:40:25.080Z,2.22
2023-05-13T13:42:53.517Z,2.17
2023-05-13T13:45:24.228Z,2.30
2023-05-13T13:47:52.782Z,2.40
2023-05-13T13:50:21.839Z,2.50
2023-05-13T13:52:52.373Z,2.53
2023-05-13T13:55:22.438Z,2.20
2023-05-13T13:57:50.907Z,2.10
2023-05-13T14:00:19.582Z,2.40
2023-05-13T14:02:48.677Z,2.38
2023-05-13T14:05:17.765Z,2.60
2023-05-13T14:07:46.424Z,2.20
2023-05-13T14:10:15.189Z,2.33
2023-05-13T14:12:44.926Z,2.50
2023-05-13T14:15:14.024Z,2.92
2023-05-13T14:17:42.440Z,2.47
2023-05-13T14:20:12.258Z,2.20
2023-05-13T14:22:40.891Z,2.38
2023-05-13T14:25:10.407Z,2.70
2023-05-13T14:27:38.826Z,2.45
2023-05-13T14:30:10.450Z,2.35
2023-05-13T14:32:38.839Z,2.20
2023-05-13T14:35:08.668Z,2.42
2023-05-13T14:37:37.075Z,2.10
2023-05-13T14:40:07.109Z,2.45
2023-05-13T14:42:35.692Z,2.33
2023-05-13T14:45:04.121Z,2.20
2023-05-13T14:47:33.976Z,2.25
2023-05-13T14:50:02.404Z,2.10
2023-05-13T14:52:30.804Z,2.15
2023-05-13T14:54:59.205Z,2.42
2023-05-13T14:57:27.805Z,2.30
2023-05-13T14:59:57.576Z,2.20
2023-05-13T15:02:27.317Z,2.45
2023-05-13T15:04:57.249Z,2.20
2023-05-13T15:07:25.689Z,2.30
2023-05-13T15:09:54.219Z,2.50
2023-05-13T15:12:23.067Z,2.30
2023-05-13T15:14:54.038Z,2.40
2023-05-13T15:17:22.609Z,2.20
2023-05-13T15:19:51.051Z,2.30
2023-05-13T15:22:21.034Z,2.22
2023-05-13T15:24:49.430Z,2.45
2023-05-13T15:27:19.562Z,2.53
2023-05-13T15:29:48.049Z,2.20
2023-05-13T15:32:16.412Z,2.10
2023-05-13T15:34:45.334Z,2.40
2023-05-13T15:37:13.729Z,2.20
2023-05-13T15:39:44.353Z,2.50
2023-05-13T15:42:12.746Z,2.40
2023-05-13T15:44:41.165Z,2.60
2023-05-13T15:47:09.798Z,2.20
2023-05-13T15:49:38.272Z,1.98
2023-05-13T15:52:07.365Z,1.95
2023-05-13T15:54:35.929Z,2.50
2023-05-13T15:57:06.130Z,2.20
2023-05-13T15:59:34.532Z,1.92
2023-05-13T16:02:03.089Z,2.13
2023-05-13T16:04:32.486Z,2.38
2023-05-13T16:07:01.415Z,2.30
2023-05-13T16:09:30.097Z,2.10
2023-05-13T16:11:58.540Z,2.10
2023-05-13T16:14:29.650Z,2.65
2023-05-13T16:16:58.170Z,2.17
2023-05-13T16:19:26.614Z,2.20
2023-05-13T16:21:55.359Z,2.25
2023-05-13T16:24:23.685Z,2.15
2023-05-13T16:26:53.450Z,2.35
2023-05-13T16:29:21.873Z,2.33
2023-05-13T16:31:52.012Z,2.10
2023-05-13T16:34:20.568Z,2.22
2023-05-13T16:36:49.006Z,2.20
2023-05-13T16:39:17.429Z,2.15
2023-05-13T16:41:46.521Z,2.22
2023-05-13T16:44:14.942Z,2.10
2023-05-13T16:46:43.311Z,2.45
2023-05-13T16:49:13.258Z,2.10
2023-05-13T16:51:41.636Z,2.10
2023-05-13T16:54:10.099Z,2.22
2023-05-13T16:56:38.543Z,2.50
2023-05-13T16:59:06.886Z,2.30
2023-05-13T17:01:35.383Z,2.15
2023-05-13T17:04:03.844Z,2.03
2023-05-13T17:06:34.128Z,2.22
2023-05-13T17:09:02.446Z,2.28
2023-05-13T17:11:31.000Z,2.30
2023-05-13T17:13:59.417Z,2.45
2023-05-13T17:16:27.921Z,2.50
2023-05-13T17:18:58.967Z,1.85
2023-05-13T17:21:27.773Z,2.40
2023-05-13T17:23:57.665Z,2.47
2023-05-13T17:26:26.371Z,2.22
2023-05-13T17:28:54.808Z,2.40
2023-05-13T17:31:23.755Z,2.58
2023-05-13T17:33:52.174Z,2.10
2023-05-13T17:36:20.735Z,2.17
2023-05-13T17:38:49.552Z,2.30
2023-05-13T17:41:19.392Z,2.55
2023-05-13T17:43:47.979Z,3.70
2023-05-13T17:46:16.442Z,2.83
2023-05-13T17:48:45.173Z,2.60
2023-05-13T17:51:13.665Z,2.60
2023-05-13T17:53:41.993Z,2.25
2023-05-13T17:56:10.686Z,2.97
2023-05-13T17:58:40.623Z,2.92
2023-05-13T18:01:09.070Z,2.50
2023-05-13T18:03:37.456Z,2.67
2023-05-13T18:06:06.622Z,2.88
2023-05-13T18:08:36.398Z,2.92
2023-05-13T18:11:04.836Z,3.10
2023-05-13T18:13:33.410Z,3.15
2023-05-13T18:16:04.540Z,2.90
2023-05-13T18:18:33.113Z,3.33
2023-05-13T18:21:01.815Z,2.90
2023-05-13T18:23:30.299Z,2.78
2023-05-13T18:25:58.905Z,2.92
2023-05-13T18:28:27.549Z,3.08
2023-05-13T18:30:56.113Z,3.17
2023-05-13T18:33:26.209Z,2.88
2023-05-13T18:35:54.718Z,3.00
2023-05-13T18:38:23.807Z,2.92
2023-05-13T18:40:52.301Z,3.13
2023-05-13T18:43:20.908Z,2.75
2023-05-13T18:45:49.701Z,2.92
2023-05-13T18:48:18.163Z,2.63
2023-05-13T18:50:48.166Z,2.92
2023-05-13T18:53:16.609Z,2.55
2023-05-13T18:55:45.208Z,3.80
2023-05-13T18:58:13.583Z,3.05
2023-05-13T19:00:42.019Z,2.95
2023-05-13T19:03:10.659Z,3.20
2023-05-13T19:05:39.139Z,2.97
2023-05-13T19:08:09.136Z,2.80
2023-05-13T19:10:40.300Z,3.53
2023-05-13T19:13:09.468Z,3.25
2023-05-13T19:15:37.854Z,2.88
2023-05-13T19:18:06.325Z,3.25
2023-05-13T19:20:34.968Z,3.13
2023-05-13T19:23:03.409Z,2.83
2023-05-13T19:25:33.321Z,2.95
2023-05-13T19:28:02.686Z,2.85
2023-05-13T19:30:31.201Z,3.22
2023-05-13T19:32:59.921Z,3.20
2023-05-13T19:35:28.419Z,2.85
2023-05-13T19:37:57.465Z,3.42
2023-05-13T19:40:26.228Z,3.10
2023-05-13T19:42:56.697Z,3.45
2023-05-13T19:45:25.072Z,3.53
2023-05-13T19:47:53.762Z,3.00
2023-05-13T19:50:22.589Z,3.28
2023-05-13T19:52:51.320Z,3.05
2023-05-13T19:55:20.561Z,3.17
2023-05-13T19:57:48.973Z,3.22
2023-05-13T20:00:20.159Z,3.45
2023-05-13T20:02:48.787Z,3.65
2023-05-13T20:05:17.344Z,3.70
2023-05-13T20:07:45.909Z,3.53
2023-05-13T20:10:14.513Z,3.72
2023-05-13T20:12:43.076Z,3.45
2023-05-13T20:15:12.241Z,3.50
2023-05-13T20:17:42.129Z,3.53
2023-05-13T20:20:11.743Z,3.42
2023-05-13T20:22:40.090Z,3.40
2023-05-13T20:25:09.813Z,3.53
2023-05-13T20:27:38.202Z,3.42
2023-05-13T20:30:08.595Z,3.40
2023-05-13T20:32:37.170Z,3.38
2023-05-13T20:35:10.479Z,3.60
2023-05-13T20:37:39.328Z,3.55
2023-05-13T20:40:09.565Z,3.35
2023-05-13T20:42:37.910Z,3.38
2023-05-13T20:45:08.879Z,4.55
2023-05-13T20:47:37.705Z,4.38
2023-05-13T20:50:09.450Z,3.80
2023-05-13T20:52:37.815Z,3.50
2023-05-13T20:55:07.822Z,3.45
2023-05-13T20:57:36.232Z,3.50
2023-05-13T21:00:05.805Z,3.63
2023-05-13T21:02:34.376Z,3.70
2023-05-13T21:05:02.783Z,3.58
2023-05-13T21:07:32.611Z,3.65
2023-05-13T21:10:01.091Z,3.75
2023-05-13T21:12:29.580Z,3.72
2023-05-13T21:14:58.014Z,3.22
2023-05-13T21:17:26.629Z,3.55
2023-05-13T21:19:55.070Z,3.25
2023-05-13T21:22:23.595Z,3.30
2023-05-13T21:24:53.295Z,3.63
2023-05-13T21:27:21.831Z,2.85
2023-05-13T21:29:50.233Z,3.28
2023-05-13T21:32:18.927Z,3.03
2023-05-13T21:34:47.518Z,3.50
2023-05-13T21:37:16.897Z,3.60
2023-05-13T21:39:45.980Z,3.55
2023-05-13T21:42:15.693Z,3.22
2023-05-13T21:44:46.743Z,3.10
2023-05-13T21:47:15.165Z,3.53
2023-05-13T21:49:44.106Z,3.33
2023-05-13T21:52:12.608Z,3.45
2023-05-13T21:54:41.336Z,3.63
2023-05-13T21:57:10.109Z,3.50
2023-05-13T21:59:39.979Z,3.20
2023-05-13T22:02:09.613Z,3.50
2023-05-13T22:04:38.018Z,3.75
2023-05-13T22:07:06.845Z,3.22
2023-05-13T22:09:35.707Z,3.53
2023-05-13T22:12:04.343Z,3.30
2023-05-13T22:14:33.000Z,3.53
2023-05-13T22:17:09.777Z,3.80
2023-05-13T22:19:39.145Z,3.20
2023-05-13T22:22:07.620Z,3.38
2023-05-13T22:24:36.041Z,3.45
2023-05-13T22:27:04.606Z,3.40
2023-05-13T22:29:33.142Z,3.70
2023-05-13T22:32:03.299Z,3.20
2023-05-13T22:34:31.686Z,3.50
2023-05-13T22:37:00.043Z,3.42
2023-05-13T22:39:28.420Z,3.47
2023-05-13T22:41:56.792Z,3.50
2023-05-13T22:44:25.887Z,3.58
2023-05-13T22:46:54.702Z,3.58
2023-05-13T22:49:24.680Z,3.30
2023-05-13T22:51:53.205Z,3.50
2023-05-13T22:54:21.587Z,3.50
2023-05-13T22:56:50.094Z,3.28
2023-05-13T22:59:18.471Z,3.70
2023-05-13T23:01:46.885Z,3.17
2023-05-13T23:04:15.683Z,3.40
2023-05-13T23:06:45.459Z,3.63
2023-05-13T23:09:13.952Z,4.00
2023-05-13T23:11:42.354Z,3.80
2023-05-13T23:14:10.755Z,3.85
2023-05-13T23:16:39.330Z,4.05
2023-05-13T23:19:07.815Z,4.10
2023-05-13T23:21:37.386Z,3.88
2023-05-13T23:24:07.352Z,3.78
2023-05-13T23:26:35.806Z,3.85
2023-05-13T23:29:04.951Z,3.75
2023-05-13T23:31:33.621Z,4.57
2023-05-13T23:34:02.224Z,3.72
2023-05-13T23:36:31.143Z,4.15
2023-05-13T23:38:59.448Z,4.10
2023-05-13T23:41:29.408Z,4.25
2023-05-13T23:43:57.750Z,3.78
2023-05-13T23:46:26.769Z,4.13
2023-05-13T23:48:55.215Z,4.32
2023-05-13T23:51:23.602Z,4.15
2023-05-13T23:53:52.093Z,4.45
2023-05-13T23:56:21.494Z,4.18
2023-05-13T23:58:51.350Z,4.32
